createdAt,value
2023-04-07T00:04:36.764Z,43
2023-04-07T00:19:36.625Z,43
2023-04-07T00:34:36.623Z,44
2023-04-07T00:49:36.658Z,45
2023-04-07T01:04:36.760Z,45
2023-04-07T01:19:36.580Z,46
2023-04-07T01:34:36.525Z,48
2023-04-07T01:49:36.563Z,48
2023-04-07T02:04:36.510Z,48
2023-04-07T02:19:36.531Z,48
2023-04-07T02:34:36.478Z,48
2023-04-07T02:49:36.525Z,50
2023-04-07T03:04:36.429Z,50
2023-04-07T03:19:36.443Z,50
2023-04-07T03:34:36.427Z,50
2023-04-07T03:49:36.457Z,51
2023-04-07T04:04:36.454Z,52
2023-04-07T04:19:36.411Z,52
2023-04-07T04:34:36.379Z,52
2023-04-07T04:49:36.397Z,52
2023-04-07T05:04:36.416Z,52
2023-04-07T05:19:36.599Z,52
2023-04-07T05:34:36.294Z,52
2023-04-07T05:49:36.323Z,52
2023-04-07T06:04:36.284Z,52
2023-04-07T06:19:36.305Z,52
2023-04-07T06:34:36.242Z,53
2023-04-07T06:49:37.292Z,52
2023-04-07T07:04:36.232Z,52
2023-04-07T07:19:36.320Z,52
2023-04-07T07:34:36.183Z,52
2023-04-07T07:49:36.239Z,53
2023-04-07T08:04:36.225Z,53
2023-04-07T08:19:36.184Z,57
2023-04-07T08:34:36.105Z,62
2023-04-07T08:49:36.115Z,65
2023-04-07T09:04:36.069Z,68
2023-04-07T09:19:36.082Z,72
2023-04-07T09:34:36.094Z,74
2023-04-07T09:49:36.089Z,76
2023-04-07T10:04:36.070Z,78
2023-04-07T10:19:36.052Z,80
2023-04-07T10:34:35.975Z,80
2023-04-07T10:49:36.015Z,81
2023-04-07T11:04:36.068Z,82
2023-04-07T11:19:36.001Z,83
2023-04-07T11:34:35.938Z,85
2023-04-07T11:49:35.947Z,85
2023-04-07T12:04:35.965Z,85
2023-04-07T12:19:36.388Z,86
2023-04-07T12:34:35.844Z,86
2023-04-07T12:49:35.845Z,85
2023-04-07T13:04:35.949Z,84
2023-04-07T13:19:37.438Z,84
2023-04-07T13:34:35.760Z,80
2023-04-07T13:49:35.762Z,75
2023-04-07T14:04:35.971Z,78
2023-04-07T14:19:35.698Z,81
2023-04-07T14:34:35.702Z,82
2023-04-07T14:49:35.680Z,83
2023-04-07T15:04:35.831Z,82
2023-04-07T15:19:35.638Z,82
2023-04-07T15:34:35.624Z,82
2023-04-07T15:49:35.629Z,82
2023-04-07T16:04:35.564Z,82
2023-04-07T16:19:35.600Z,83
2023-04-07T16:49:35.538Z,81
2023-04-07T17:04:35.597Z,79
2023-04-07T17:19:35.530Z,80
2023-04-07T17:34:35.451Z,80
2023-04-07T17:49:35.474Z,81
2023-04-07T18:04:35.440Z,80
2023-04-07T18:19:35.445Z,80
2023-04-07T18:34:35.411Z,80
2023-04-07T18:49:35.410Z,80
2023-04-07T19:04:35.362Z,80
2023-04-07T19:19:35.389Z,80
2023-04-07T19:34:35.290Z,81
2023-04-07T19:49:35.316Z,80
2023-04-07T20:04:35.273Z,80
2023-04-07T20:19:35.433Z,79
2023-04-07T20:34:35.264Z,78
2023-04-07T20:49:35.261Z,76
2023-04-07T21:04:35.206Z,76
2023-04-07T21:19:35.235Z,75
2023-04-07T21:34:35.205Z,75
2023-04-07T21:49:35.173Z,76
2023-04-07T22:04:35.282Z,76
2023-04-07T22:19:35.171Z,76
2023-04-07T22:34:35.128Z,76
2023-04-07T22:49:35.117Z,77
2023-04-07T23:04:35.106Z,77
2023-04-07T23:19:35.079Z,77
2023-04-07T23:34:35.044Z,77
2023-04-07T23:49:35.079Z,77
